Time;durP1;ratioP1;P1;durP2;ratioP2;P2;SDS_P1;SDS_P2;PMS_P1;PMS_P2;Temp;Humidity;BMP_temperature;BMP_pressure;BME280_temperature;BME280_humidity;BME280_pressure;Samples;Min_cycle;Max_cycle;Signal;HPM_P1;HPM_P2
2021/11/06 00:00:09;;;;;;;;;;;;;;;0.36;100.00;100054.88;5033804;28;19920;-66
2021/11/06 00:02:34;;;;;;;;;;;;;;;0.28;100.00;100052.75;5035465;28;19967;-66
2021/11/06 00:05:00;;;;;;;;;;;;;;;0.22;100.00;100032.75;5032298;28;20020;-68
2021/11/06 00:07:25;;;;;;;;;;;;;;;0.35;100.00;100047.88;5033599;28;20003;-66
2021/11/06 00:09:50;;;;;;;;;;;;;;;0.36;100.00;100057.56;5031455;28;20024;-66
2021/11/06 00:12:16;;;;;;;;;;;;;;;0.33;100.00;100055.09;5015843;28;20425;-68
2021/11/06 00:14:41;;;;;;;;;;;;;;;0.27;100.00;100060.88;5018878;28;19913;-66
2021/11/06 00:17:06;;;;;;;;;;;;;;;0.27;100.00;100052.88;5020842;28;20348;-65
2021/11/06 00:19:31;;;;;;;;;;;;;;;0.31;100.00;100067.66;5015858;28;19924;-68
2021/11/06 00:21:57;;;;;;;;;;;;;;;0.34;100.00;100064.78;5022308;28;19924;-67
2021/11/06 00:24:22;;;;;;;;;;;;;;;0.53;100.00;100065.22;5026125;28;19966;-66
2021/11/06 00:26:50;;;;;;;;;;;;;;;0.57;100.00;100073.81;5040281;28;19912;-66
2021/11/06 00:29:16;;;;;;;;;;;;;;;0.64;100.00;100067.97;5053844;28;19912;-66
2021/11/06 00:31:41;;;;;;;;;;;;;;;0.76;100.00;100055.59;5047814;28;20531;-66
2021/11/06 00:34:07;;;;;;;;;;;;;;;0.79;100.00;100057.19;5021637;28;19970;-66
2021/11/06 00:36:32;;;;;;;;;;;;;;;0.90;100.00;100057.25;5035841;28;20363;-66
2021/11/06 00:38:57;;;;;;;;;;;;;;;1.04;100.00;100059.75;5033130;28;20445;-65
2021/11/06 00:41:22;;;;;;;;;;;;;;;1.17;100.00;100062.38;5034464;28;19912;-66
2021/11/06 00:43:48;;;;;;;;;;;;;;;1.20;100.00;100064.81;5023410;28;19913;-66
2021/11/06 00:46:13;;;;;;;;;;;;;;;1.23;100.00;100051.28;5025396;28;19913;-66
2021/11/06 00:48:38;;;;;;;;;;;;;;;1.25;100.00;100054.66;5024177;28;19935;-66
2021/11/06 00:51:03;;;;;;;;;;;;;;;1.22;100.00;100051.38;5034697;28;19909;-66
2021/11/06 00:53:29;;;;;;;;;;;;;;;1.23;100.00;100058.41;5032997;28;19928;-68
2021/11/06 00:55:54;;;;;;;;;;;;;;;1.29;100.00;100065.97;5033846;28;19913;-66
2021/11/06 00:58:19;;;;;;;;;;;;;;;1.24;100.00;100060.97;5029045;28;19913;-66
2021/11/06 01:00:44;;;;;;;;;;;;;;;1.16;100.00;100060.69;5033329;28;19916;-67
2021/11/06 01:03:09;;;;;;;;;;;;;;;1.15;100.00;100066.97;5030962;28;19917;-67
2021/11/06 01:05:35;;;;;;;;;;;;;;;1.11;100.00;100068.16;5032584;28;19909;-67
2021/11/06 01:08:00;;;;;;;;;;;;;;;1.05;100.00;100073.97;5014682;28;19928;-67
2021/11/06 01:10:25;;;;;;;;;;;;;;;1.07;100.00;100072.00;5015082;28;19932;-67
2021/11/06 01:12:51;;;;;;;;;;;;;;;0.99;100.00;100061.91;5025468;28;19920;-67
2021/11/06 01:15:16;;;;;;;;;;;;;;;1.05;100.00;100072.13;5031404;28;19917;-67
2021/11/06 01:17:42;;;;;;;;;;;;;;;0.93;100.00;100078.34;5034250;28;20351;-67
2021/11/06 01:20:07;;;;;;;;;;;;;;;0.88;100.00;100075.16;5034286;28;19909;-66
2021/11/06 01:22:33;;;;;;;;;;;;;;;0.89;100.00;100079.50;5033561;28;19916;-67
2021/11/06 01:24:58;;;;;;;;;;;;;;;0.94;100.00;100072.03;5027265;28;19913;-67
2021/11/06 01:27:24;;;;;;;;;;;;;;;1.09;100.00;100065.59;5032146;28;19909;-66
2021/11/06 01:29:49;;;;;;;;;;;;;;;1.01;100.00;100070.66;5016714;28;19921;-66
2021/11/06 01:32:14;;;;;;;;;;;;;;;1.03;100.00;100066.06;5033274;28;20267;-67
2021/11/06 01:34:39;;;;;;;;;;;;;;;0.97;100.00;100070.97;5033361;28;19920;-66
2021/11/06 01:37:05;;;;;;;;;;;;;;;1.00;100.00;100076.94;5029602;28;19964;-66
2021/11/06 01:39:30;;;;;;;;;;;;;;;1.06;100.00;100072.97;5033459;28;19913;-66
2021/11/06 01:41:56;;;;;;;;;;;;;;;1.03;100.00;100076.72;5033106;28;19924;-66
2021/11/06 01:44:23;;;;;;;;;;;;;;;0.97;100.00;100071.84;5033670;28;19913;-66
2021/11/06 01:46:49;;;;;;;;;;;;;;;0.97;100.00;100076.28;5029624;28;19913;-67
2021/11/06 01:49:15;;;;;;;;;;;;;;;1.00;100.00;100071.63;5033461;28;19916;-66
2021/11/06 01:51:40;;;;;;;;;;;;;;;1.01;100.00;100067.97;5034043;28;19912;-66
2021/11/06 01:54:05;;;;;;;;;;;;;;;1.02;100.00;100053.72;5027028;28;20393;-66
2021/11/06 01:56:31;;;;;;;;;;;;;;;1.05;100.00;100052.63;5014046;28;20443;-66
2021/11/06 01:58:56;;;;;;;;;;;;;;;1.08;100.00;100053.25;5026128;28;20375;-66
2021/11/06 02:01:21;;;;;;;;;;;;;;;1.12;100.00;100061.03;5029228;28;19921;-66
2021/11/06 02:03:47;;;;;;;;;;;;;;;1.22;100.00;100054.06;5031163;28;19913;-66
2021/11/06 02:06:12;;;;;;;;;;;;;;;1.30;100.00;100057.84;5030526;28;19913;-67
2021/11/06 02:08:38;;;;;;;;;;;;;;;1.29;100.00;100050.81;5018469;28;20554;-67
2021/11/06 02:11:03;;;;;;;;;;;;;;;1.44;100.00;100054.19;5050988;28;19960;-67
2021/11/06 02:13:28;;;;;;;;;;;;;;;1.44;100.00;100055.97;5035503;28;19917;-67
2021/11/06 02:15:54;;;;;;;;;;;;;;;1.40;100.00;100059.84;5033341;28;20251;-66
2021/11/06 02:18:19;;;;;;;;;;;;;;;1.39;100.00;100055.47;5031957;28;19908;-67
2021/11/06 02:20:48;;;;;;;;;;;;;;;1.48;100.00;100055.63;5018028;28;19917;-66
2021/11/06 02:23:14;;;;;;;;;;;;;;;1.48;100.00;100058.31;5031596;28;20370;-66
2021/11/06 02:25:39;;;;;;;;;;;;;;;1.57;100.00;100058.56;5037054;28;19935;-67
2021/11/06 02:28:04;;;;;;;;;;;;;;;1.66;100.00;100050.75;5052233;28;20027;-67
2021/11/06 02:30:29;;;;;;;;;;;;;;;1.77;100.00;100052.59;5043572;28;19941;-67
2021/11/06 02:32:55;;;;;;;;;;;;;;;1.71;100.00;100061.06;5023617;28;19974;-67
2021/11/06 02:35:20;;;;;;;;;;;;;;;1.78;100.00;100056.94;5033102;28;19916;-67
2021/11/06 02:37:46;;;;;;;;;;;;;;;1.73;100.00;100053.81;5029071;28;20335;-67
2021/11/06 02:40:12;;;;;;;;;;;;;;;1.78;100.00;100058.78;5021699;28;19967;-67
2021/11/06 02:42:38;;;;;;;;;;;;;;;1.91;100.00;100064.88;5035470;28;19924;-67
2021/11/06 02:45:04;;;;;;;;;;;;;;;1.93;100.00;100060.28;5029723;28;19913;-67
2021/11/06 02:47:36;;;;;;;;;;;;;;;1.94;100.00;100056.66;5030717;28;20433;-67
2021/11/06 02:50:01;;;;;;;;;;;;;;;1.97;100.00;100059.09;5019528;28;19913;-67
2021/11/06 02:52:26;;;;;;;;;;;;;;;1.92;100.00;100054.09;5013219;28;19913;-67
2021/11/06 02:54:51;;;;;;;;;;;;;;;1.92;100.00;100054.09;5027703;28;19917;-67
2021/11/06 02:57:17;;;;;;;;;;;;;;;1.89;100.00;100059.69;5032095;28;19944;-68
2021/11/06 02:59:42;;;;;;;;;;;;;;;1.89;100.00;100062.34;5031366;28;19913;-67
2021/11/06 03:02:07;;;;;;;;;;;;;;;1.93;100.00;100062.94;5025921;28;19916;-68
2021/11/06 03:04:37;;;;;;;;;;;;;;;2.09;100.00;100057.28;5027108;28;19925;-67
2021/11/06 03:07:02;;;;;;;;;;;;;;;2.21;100.00;100056.34;5031189;28;19955;-67
2021/11/06 03:09:28;;;;;;;;;;;;;;;1.91;100.00;100057.75;5024724;28;19964;-67
2021/11/06 03:11:54;;;;;;;;;;;;;;;2.00;100.00;100060.69;5018722;28;19921;-68
2021/11/06 03:14:20;;;;;;;;;;;;;;;1.92;100.00;100064.78;5012819;28;19920;-67
2021/11/06 03:16:45;;;;;;;;;;;;;;;1.84;100.00;100064.50;5033012;28;20003;-67
2021/11/06 03:19:10;;;;;;;;;;;;;;;2.05;100.00;100055.84;5037674;28;20004;-67
2021/11/06 03:21:36;;;;;;;;;;;;;;;2.07;100.00;100061.88;5022552;28;19964;-67
2021/11/06 03:24:02;;;;;;;;;;;;;;;2.11;100.00;100061.53;5023556;28;20372;-67
2021/11/06 03:26:27;;;;;;;;;;;;;;;2.07;100.00;100064.53;5030432;28;19971;-67
2021/11/06 03:28:52;;;;;;;;;;;;;;;1.98;100.00;100053.63;5031896;28;20268;-67
2021/11/06 03:31:17;;;;;;;;;;;;;;;2.02;100.00;100064.03;5025122;28;19913;-67
2021/11/06 03:33:43;;;;;;;;;;;;;;;1.95;100.00;100069.88;5020147;28;19939;-67
2021/11/06 03:36:08;;;;;;;;;;;;;;;1.98;100.00;100060.78;5032187;28;19909;-68
2021/11/06 03:38:33;;;;;;;;;;;;;;;2.00;100.00;100061.50;5031187;28;19952;-67
2021/11/06 03:40:58;;;;;;;;;;;;;;;2.06;100.00;100073.53;5030492;28;20353;-67
2021/11/06 03:43:23;;;;;;;;;;;;;;;2.06;100.00;100065.53;5020841;28;20355;-67
2021/11/06 03:45:49;;;;;;;;;;;;;;;2.09;100.00;100076.81;5016179;28;20016;-67
2021/11/06 03:48:14;;;;;;;;;;;;;;;2.09;100.00;100076.81;5031609;28;20374;-68
2021/11/06 03:50:39;;;;;;;;;;;;;;;2.09;100.00;100075.97;5036908;28;19999;-67
2021/11/06 03:53:04;;;;;;;;;;;;;;;2.10;100.00;100077.69;5022533;28;19942;-67
2021/11/06 03:55:29;;;;;;;;;;;;;;;2.06;100.00;100078.88;5014657;28;19948;-67
2021/11/06 03:57:55;;;;;;;;;;;;;;;2.10;100.00;100085.69;5024982;28;19910;-67
2021/11/06 04:00:21;;;;;;;;;;;;;;;2.12;100.00;100081.94;5033202;28;20294;-67
2021/11/06 04:02:46;;;;;;;;;;;;;;;2.12;100.00;100089.94;5018264;28;20437;-67
2021/11/06 04:05:12;;;;;;;;;;;;;;;2.13;100.00;100091.63;5020147;28;19921;-67
2021/11/06 04:07:37;;;;;;;;;;;;;;;2.18;100.00;100091.28;5038447;28;19904;-67
2021/11/06 04:10:04;;;;;;;;;;;;;;;2.22;100.00;100084.72;5040565;28;20016;-67
2021/11/06 04:12:29;;;;;;;;;;;;;;;2.30;100.00;100079.66;5026828;28;19913;-67
2021/11/06 04:14:54;;;;;;;;;;;;;;;2.33;100.00;100090.13;5033915;28;19909;-67
2021/11/06 04:17:19;;;;;;;;;;;;;;;2.40;100.00;100082.47;5017033;28;19920;-67
2021/11/06 04:19:45;;;;;;;;;;;;;;;2.40;100.00;100091.31;5015727;28;19916;-67
2021/11/06 04:22:10;;;;;;;;;;;;;;;2.46;100.00;100089.97;5016277;28;19914;-67
2021/11/06 04:24:35;;;;;;;;;;;;;;;2.48;100.00;100081.84;5024376;28;19995;-67
2021/11/06 04:27:01;;;;;;;;;;;;;;;2.38;100.00;100082.59;5023421;28;19968;-67
2021/11/06 04:29:26;;;;;;;;;;;;;;;2.43;100.00;100090.22;5021557;28;20007;-67
2021/11/06 04:31:51;;;;;;;;;;;;;;;2.33;100.00;100091.91;5026802;28;19917;-67
2021/11/06 04:34:17;;;;;;;;;;;;;;;2.28;100.00;100094.97;5017314;28;19909;-67
2021/11/06 04:36:42;;;;;;;;;;;;;;;2.34;100.00;100094.47;5032449;28;19913;-67
2021/11/06 04:39:07;;;;;;;;;;;;;;;2.32;100.00;100091.06;5035033;28;19935;-66
2021/11/06 04:41:33;;;;;;;;;;;;;;;2.38;100.00;100087.94;5035343;28;20288;-67
2021/11/06 04:43:58;;;;;;;;;;;;;;;2.43;100.00;100090.22;5054953;28;20016;-67
2021/11/06 04:46:24;;;;;;;;;;;;;;;2.32;100.00;100093.72;5034026;28;19913;-66
2021/11/06 04:48:49;;;;;;;;;;;;;;;2.32;100.00;100096.41;5046960;22;19920;-68
2021/11/06 04:51:14;;;;;;;;;;;;;;;2.41;100.00;100097.50;5013071;28;19921;-68
2021/11/06 04:53:39;;;;;;;;;;;;;;;2.42;100.00;100100.06;5022588;28;19912;-68
2021/11/06 04:56:05;;;;;;;;;;;;;;;2.40;100.00;100099.31;5033865;28;20377;-69
2021/11/06 04:58:30;;;;;;;;;;;;;;;2.45;100.00;100088.28;5033710;28;19924;-69
2021/11/06 05:00:55;;;;;;;;;;;;;;;2.54;100.00;100090.25;5033933;28;20007;-68
2021/11/06 05:03:21;;;;;;;;;;;;;;;2.52;100.00;100104.69;5033648;28;19960;-68
2021/11/06 05:05:46;;;;;;;;;;;;;;;2.52;100.00;100097.53;5032948;28;19956;-68
2021/11/06 05:08:12;;;;;;;;;;;;;;;2.60;100.00;100100.44;5034241;28;20012;-68
2021/11/06 05:10:38;;;;;;;;;;;;;;;2.67;100.00;100095.47;5033906;28;19944;-68
2021/11/06 05:13:03;;;;;;;;;;;;;;;2.67;100.00;100092.78;5033674;28;20074;-68
2021/11/06 05:15:28;;;;;;;;;;;;;;;2.67;100.00;100084.78;5009933;28;19931;-68
2021/11/06 05:17:54;;;;;;;;;;;;;;;2.69;100.00;100095.34;5033994;28;20282;-69
2021/11/06 05:20:20;;;;;;;;;;;;;;;2.87;100.00;100093.03;5032763;28;19909;-69
2021/11/06 05:22:45;;;;;;;;;;;;;;;2.69;100.00;100098.88;5033707;28;20286;-68
2021/11/06 05:25:10;;;;;;;;;;;;;;;2.72;100.00;100098.63;5033244;28;20371;-69
2021/11/06 05:27:35;;;;;;;;;;;;;;;2.62;100.00;100100.34;5015485;28;20004;-68
2021/11/06 05:30:03;;;;;;;;;;;;;;;2.65;100.00;100102.78;5033354;28;19909;-69
2021/11/06 05:32:28;;;;;;;;;;;;;;;2.60;100.00;100099.59;5032816;28;20370;-68
2021/11/06 05:34:53;;;;;;;;;;;;;;;2.58;100.00;100102.38;5033565;28;19931;-68
2021/11/06 05:37:18;;;;;;;;;;;;;;;2.67;100.00;100107.97;5034114;28;20317;-68
2021/11/06 05:39:44;;;;;;;;;;;;;;;2.57;100.00;100099.84;5015560;28;19912;-68
2021/11/06 05:42:09;;;;;;;;;;;;;;;2.62;100.00;100111.03;5023486;28;19917;-68
2021/11/06 05:44:35;;;;;;;;;;;;;;;2.58;100.00;100098.88;5038207;28;19909;-68
2021/11/06 05:47:00;;;;;;;;;;;;;;;2.51;100.00;100109.16;5037332;28;19913;-68
2021/11/06 05:49:25;;;;;;;;;;;;;;;2.44;100.00;100107.97;5035350;28;19948;-68
2021/11/06 05:51:50;;;;;;;;;;;;;;;2.48;100.00;100116.59;5038370;28;20354;-68
2021/11/06 05:54:16;;;;;;;;;;;;;;;2.42;100.00;100105.41;5017165;28;19917;-69
2021/11/06 05:56:42;;;;;;;;;;;;;;;2.37;100.00;100107.59;5037260;28;19909;-69
2021/11/06 05:59:08;;;;;;;;;;;;;;;2.42;100.00;100116.09;5037829;28;20003;-68
2021/11/06 06:01:33;;;;;;;;;;;;;;;2.48;100.00;100103.22;5038108;28;19924;-68
2021/11/06 06:03:58;;;;;;;;;;;;;;;2.45;100.00;100111.50;5020421;28;20289;-68
2021/11/06 06:06:24;;;;;;;;;;;;;;;2.41;100.00;100102.84;5038416;28;19925;-69
2021/11/06 06:08:50;;;;;;;;;;;;;;;2.40;100.00;100111.84;5045244;28;19980;-68
2021/11/06 06:11:15;;;;;;;;;;;;;;;2.40;100.00;100107.34;5033337;28;19952;-68
2021/11/06 06:13:41;;;;;;;;;;;;;;;2.37;100.00;100110.25;5032181;28;19935;-68
2021/11/06 06:16:06;;;;;;;;;;;;;;;2.47;100.00;100109.56;5013992;28;20402;-68
2021/11/06 06:18:31;;;;;;;;;;;;;;;2.47;100.00;100120.25;5030540;28;19928;-71
2021/11/06 06:20:56;;;;;;;;;;;;;;;2.44;100.00;100123.13;5030350;28;20024;-70
2021/11/06 06:23:21;;;;;;;;;;;;;;;2.45;100.00;100120.34;5034302;28;20393;-71
2021/11/06 06:25:47;;;;;;;;;;;;;;;2.43;100.00;100130.28;5012688;28;19920;-65
2021/11/06 06:28:12;;;;;;;;;;;;;;;2.39;100.00;100129.69;5038241;28;19919;-69
2021/11/06 06:30:38;;;;;;;;;;;;;;;2.40;100.00;100120.69;5033530;28;19935;-69
2021/11/06 06:33:04;;;;;;;;;;;;;;;2.39;100.00;100132.34;5020753;28;19959;-68
2021/11/06 06:35:29;;;;;;;;;;;;;;;2.42;100.00;100137.47;5031328;28;19917;-71
2021/11/06 06:37:58;;;;;;;;;;;;;;;2.37;100.00;100139.63;5031666;28;19921;-71
2021/11/06 06:40:23;;;;;;;;;;;;;;;2.43;100.00;100140.97;5025921;28;19928;-70
2021/11/06 06:42:49;;;;;;;;;;;;;;;2.53;100.00;100136.63;5020530;28;19917;-69
2021/11/06 06:45:14;;;;;;;;;;;;;;;2.58;100.00;100136.28;5025672;28;19913;-69
2021/11/06 06:47:39;;;;;;;;;;;;;;;2.59;100.00;100138.84;5024552;28;19913;-70
2021/11/06 06:50:04;;;;;;;;;;;;;;;2.63;100.00;100134.09;5015490;28;19961;-70
2021/11/06 06:52:30;;;;;;;;;;;;;;;2.58;100.00;100144.28;5031861;28;19913;-70
2021/11/06 06:54:56;;;;;;;;;;;;;;;2.56;100.00;100144.41;5032234;28;19917;-69
2021/11/06 06:57:22;;;;;;;;;;;;;;;2.58;100.00;100150.47;5033416;28;19897;-67
2021/11/06 06:59:47;;;;;;;;;;;;;;;2.71;100.00;100155.72;5057141;28;19913;-69
2021/11/06 07:02:14;;;;;;;;;;;;;;;2.67;100.00;100151.56;5050346;28;20337;-69
2021/11/06 07:04:39;;;;;;;;;;;;;;;2.64;100.00;100154.50;5057294;28;19942;-69
2021/11/06 07:07:05;;;;;;;;;;;;;;;2.60;100.00;100161.06;5031811;28;20314;-68
2021/11/06 07:09:30;;;;;;;;;;;;;;;2.70;100.00;100158.50;5043123;28;19928;-69
2021/11/06 07:11:55;;;;;;;;;;;;;;;2.74;100.00;100160.81;5044345;28;19917;-68
2021/11/06 07:14:21;;;;;;;;;;;;;;;2.89;100.00;100160.59;5052474;28;20107;-69
2021/11/06 07:16:47;;;;;;;;;;;;;;;2.91;100.00;100169.31;5054818;28;19905;-68
2021/11/06 07:19:13;;;;;;;;;;;;;;;2.94;100.00;100164.63;5034748;28;19916;-68
2021/11/06 07:21:38;;;;;;;;;;;;;;;2.98;100.00;100165.22;5038984;28;19960;-68
2021/11/06 07:24:04;;;;;;;;;;;;;;;3.04;100.00;100172.75;5057302;28;19912;-68
2021/11/06 07:26:30;;;;;;;;;;;;;;;3.04;100.00;100172.75;5048339;28;20294;-68
2021/11/06 07:28:55;;;;;;;;;;;;;;;3.02;100.00;100177.38;5018594;28;20409;-69
2021/11/06 07:31:21;;;;;;;;;;;;;;;2.99;100.00;100177.63;5036674;28;19999;-68
2021/11/06 07:33:48;;;;;;;;;;;;;;;3.06;100.00;100170.78;5032187;28;19941;-68
2021/11/06 07:36:13;;;;;;;;;;;;;;;2.92;100.00;100174.56;5034526;28;19919;-68
2021/11/06 07:38:38;;;;;;;;;;;;;;;2.96;100.00;100178.72;5032481;28;20361;-69
2021/11/06 07:41:04;;;;;;;;;;;;;;;2.94;100.00;100180.66;5033366;28;19913;-69
2021/11/06 07:43:29;;;;;;;;;;;;;;;3.00;100.00;100165.94;5031906;28;22546;-69
2021/11/06 07:45:54;;;;;;;;;;;;;;;2.98;100.00;100178.56;5031938;28;20386;-75
2021/11/06 07:48:20;;;;;;;;;;;;;;;2.95;100.00;100192.19;5034428;28;19909;-76
2021/11/06 07:50:45;;;;;;;;;;;;;;;2.91;100.00;100191.59;5003572;28;20378;-71
2021/11/06 07:53:11;;;;;;;;;;;;;;;3.00;100.00;100195.34;5018955;28;19920;-70
2021/11/06 07:55:37;;;;;;;;;;;;;;;3.10;100.00;100198.16;5037831;28;20374;-66
2021/11/06 07:58:02;;;;;;;;;;;;;;;3.16;100.00;100195.84;5021109;28;19920;-67
2021/11/06 08:00:28;;;;;;;;;;;;;;;3.20;100.00;100202.66;5049209;28;19920;-66
2021/11/06 08:02:53;;;;;;;;;;;;;;;3.27;100.00;100206.56;5035488;28;20291;-67
2021/11/06 08:05:18;;;;;;;;;;;;;;;3.24;100.00;100201.41;5033531;28;19913;-67
2021/11/06 08:07:44;;;;;;;;;;;;;;;3.25;100.00;100202.28;5039814;28;20015;-66
2021/11/06 08:10:10;;;;;;;;;;;;;;;3.17;100.00;100189.53;5033815;28;20007;-66
2021/11/06 08:12:38;;;;;;;;;;;;;;;3.22;100.00;100199.84;5030995;28;19917;-66
2021/11/06 08:15:04;;;;;;;;;;;;;;;3.27;100.00;100213.69;5027426;28;19917;-66
2021/11/06 08:17:29;;;;;;;;;;;;;;;3.16;100.00;100211.03;5032409;28;19927;-66
2021/11/06 08:19:56;;;;;;;;;;;;;;;3.23;100.00;100202.41;5031796;28;19913;-66
2021/11/06 08:22:21;;;;;;;;;;;;;;;3.25;100.00;100216.53;5029937;28;19917;-66
2021/11/06 08:24:46;;;;;;;;;;;;;;;3.34;100.00;100219.44;5029209;28;19920;-66
2021/11/06 08:27:12;;;;;;;;;;;;;;;3.50;100.00;100214.53;5030992;28;19913;-67
2021/11/06 08:29:37;;;;;;;;;;;;;;;3.54;100.00;100205.31;5031468;28;19995;-74
2021/11/06 08:32:02;;;;;;;;;;;;;;;3.69;100.00;100209.44;5032565;28;19916;-75
2021/11/06 08:34:28;;;;;;;;;;;;;;;3.74;100.00;100201.00;5034400;28;19913;-75
2021/11/06 08:36:54;;;;;;;;;;;;;;;3.83;100.00;100207.44;5014538;28;20385;-75
2021/11/06 08:39:20;;;;;;;;;;;;;;;3.90;100.00;100206.81;5012556;28;19914;-73
2021/11/06 08:41:45;;;;;;;;;;;;;;;4.01;100.00;100208.59;5031031;28;20371;-74
2021/11/06 08:44:13;;;;;;;;;;;;;;;4.13;100.00;100207.56;5032470;28;19919;-70
2021/11/06 08:46:41;;;;;;;;;;;;;;;4.25;100.00;100202.19;5025978;28;19909;-73
2021/11/06 08:49:06;;;;;;;;;;;;;;;4.27;100.00;100214.47;5029340;28;19960;-75
2021/11/06 08:51:31;;;;;;;;;;;;;;;4.44;100.00;100212.19;5013627;28;19945;-74
2021/11/06 08:53:58;;;;;;;;;;;;;;;4.39;100.00;100215.25;5032110;28;19964;-75
2021/11/06 08:56:28;;;;;;;;;;;;;;;4.37;100.00;100214.53;5028491;28;20418;-75
2021/11/06 08:58:53;;;;;;;;;;;;;;;4.36;100.00;100218.22;5029348;28;19909;-75
2021/11/06 09:01:18;;;;;;;;;;;;;;;4.36;100.00;100218.22;5027496;28;20001;-75
2021/11/06 09:03:43;;;;;;;;;;;;;;;4.41;100.00;100209.78;5038121;28;19920;-74
2021/11/06 09:06:09;;;;;;;;;;;;;;;4.48;100.00;100213.63;5025792;28;20294;-74
2021/11/06 09:08:35;;;;;;;;;;;;;;;4.52;100.00;100218.59;5007303;28;19909;-75
2021/11/06 09:11:03;;;;;;;;;;;;;;;4.43;100.00;100213.16;5033804;28;20582;-74
2021/11/06 09:13:28;;;;;;;;;;;;;;;4.47;100.00;100220.81;5029736;28;19920;-74
2021/11/06 09:15:53;;;;;;;;;;;;;;;4.57;100.00;100216.38;5034105;28;19913;-75
2021/11/06 09:18:19;;;;;;;;;;;;;;;4.51;100.00;100218.75;5028738;28;20135;-72
2021/11/06 09:20:44;;;;;;;;;;;;;;;4.57;100.00;100220.91;5023113;28;20003;-74
2021/11/06 09:23:10;;;;;;;;;;;;;;;4.59;100.00;100219.78;5029724;28;20267;-75
2021/11/06 09:25:35;;;;;;;;;;;;;;;4.86;100.00;100220.25;5024915;28;19913;-73
2021/11/06 09:28:00;;;;;;;;;;;;;;;4.91;100.00;100218.88;5020951;28;19912;-72
2021/11/06 09:30:25;;;;;;;;;;;;;;;4.78;100.00;100219.06;5029677;28;19917;-72
2021/11/06 09:32:51;;;;;;;;;;;;;;;4.82;100.00;100220.53;5022248;28;19908;-73
2021/11/06 09:35:17;;;;;;;;;;;;;;;4.81;100.00;100215.28;5005171;28;20333;-74
2021/11/06 09:37:43;;;;;;;;;;;;;;;4.96;100.00;100216.66;4999637;28;20005;-74
2021/11/06 09:40:09;;;;;;;;;;;;;;;4.77;100.00;100214.69;5013181;28;20377;-71
2021/11/06 09:42:39;;;;;;;;;;;;;;;4.78;100.00;100224.44;5007553;28;19917;-71
2021/11/06 09:45:06;;;;;;;;;;;;;;;4.83;100.00;100213.31;5020908;28;19899;-74
2021/11/06 09:47:31;;;;;;;;;;;;;;;4.86;100.00;100212.22;5057983;28;19985;-68
2021/11/06 09:49:57;;;;;;;;;;;;;;;5.04;100.00;100213.31;5057199;28;19909;-73
2021/11/06 09:52:22;;;;;;;;;;;;;;;4.95;100.00;100214.06;5072600;28;19976;-74
2021/11/06 09:54:47;;;;;;;;;;;;;;;5.10;100.00;100217.28;5053351;28;19976;-72
2021/11/06 09:57:12;;;;;;;;;;;;;;;5.08;99.68;100213.88;5056034;28;19897;-73
2021/11/06 09:59:38;;;;;;;;;;;;;;;5.08;100.00;100219.22;5055739;28;19921;-75
2021/11/06 10:02:03;;;;;;;;;;;;;;;5.19;100.00;100227.22;5019881;28;19917;-76
2021/11/06 10:04:30;;;;;;;;;;;;;;;5.11;100.00;100225.19;5033532;28;19913;-75
2021/11/06 10:06:58;;;;;;;;;;;;;;;5.32;99.24;100232.34;5015877;28;19909;-76
2021/11/06 10:09:24;;;;;;;;;;;;;;;5.71;99.73;100222.59;5015381;28;19932;-75
2021/11/06 10:11:52;;;;;;;;;;;;;;;5.80;96.95;100205.66;5038185;28;19909;-76
2021/11/06 10:14:18;;;;;;;;;;;;;;;5.90;95.90;100222.66;5012272;28;19909;-76
2021/11/06 10:16:58;;;;;;;;;;;;;;;5.81;95.86;100212.72;5035818;28;19909;-76
2021/11/06 10:19:31;;;;;;;;;;;;;;;5.76;96.34;100214.13;5032698;28;19917;-76
2021/11/06 10:22:06;;;;;;;;;;;;;;;5.43;99.97;100211.63;5032939;28;20410;-77
2021/11/06 10:24:51;;;;;;;;;;;;;;;5.84;98.30;100212.47;5036084;28;19955;-74
2021/11/06 10:27:18;;;;;;;;;;;;;;;5.77;97.74;100210.47;5032959;28;19913;-74
2021/11/06 10:29:44;;;;;;;;;;;;;;;6.05;97.57;100206.16;5032869;28;19963;-75
2021/11/06 10:32:10;;;;;;;;;;;;;;;6.07;95.14;100201.50;5033121;28;20174;-76
2021/11/06 10:34:36;;;;;;;;;;;;;;;5.99;94.54;100206.72;5032447;28;19920;-73
2021/11/06 10:37:04;;;;;;;;;;;;;;;6.30;95.07;100202.91;5043443;28;19992;-71
2021/11/06 10:39:29;;;;;;;;;;;;;;;6.27;94.02;100202.38;5041164;28;19917;-74
2021/11/06 10:42:08;;;;;;;;;;;;;;;6.13;94.27;100199.09;5047322;28;19912;-75
2021/11/06 10:44:34;;;;;;;;;;;;;;;6.06;94.99;100197.13;5033382;28;20298;-75
2021/11/06 10:46:59;;;;;;;;;;;;;;;6.14;96.36;100190.03;5013988;28;19913;-75
2021/11/06 10:49:34;;;;;;;;;;;;;;;6.13;96.00;100190.16;5031898;28;19920;-69
2021/11/06 10:52:01;;;;;;;;;;;;;;;6.26;95.39;100185.41;5038068;28;19913;-69
2021/11/06 10:54:26;;;;;;;;;;;;;;;6.13;96.27;100188.34;5039661;28;19928;-69
2021/11/06 10:56:54;;;;;;;;;;;;;;;6.20;93.44;100177.88;5041411;28;19913;-70
2021/11/06 10:59:21;;;;;;;;;;;;;;;6.36;94.84;100180.84;5034339;28;20012;-69
2021/11/06 11:01:53;;;;;;;;;;;;;;;6.19;94.50;100172.66;5037646;28;19921;-70
2021/11/06 11:04:19;;;;;;;;;;;;;;;6.29;96.06;100168.97;5036605;28;19913;-69
2021/11/06 11:06:52;;;;;;;;;;;;;;;6.23;95.04;100158.78;5033182;28;19917;-69
2021/11/06 11:09:25;;;;;;;;;;;;;;;6.25;94.03;100155.97;5021827;28;19913;-69
2021/11/06 11:11:51;;;;;;;;;;;;;;;6.61;94.50;100156.22;5013059;28;19936;-78
2021/11/06 11:14:24;;;;;;;;;;;;;;;6.51;94.76;100150.84;5022642;28;20004;-76
2021/11/06 11:17:00;;;;;;;;;;;;;;;6.25;94.12;100139.84;5058980;28;19913;-74
2021/11/06 11:19:38;;;;;;;;;;;;;;;6.19;95.24;100146.63;5018995;28;20383;-75
2021/11/06 11:22:03;;;;;;;;;;;;;;;6.31;95.53;100145.50;5033874;28;19979;-75
2021/11/06 11:24:29;;;;;;;;;;;;;;;6.38;95.53;100139.53;5041630;28;20007;-75
2021/11/06 11:26:56;;;;;;;;;;;;;;;6.39;93.31;100155.50;5022639;28;20336;-74
2021/11/06 11:29:28;;;;;;;;;;;;;;;6.40;94.04;100145.63;5038502;28;19909;-76
2021/11/06 11:31:54;;;;;;;;;;;;;;;6.41;93.66;100148.16;5039168;28;19909;-78
2021/11/06 11:34:20;;;;;;;;;;;;;;;6.57;94.95;100139.50;5019596;28;19909;-78
2021/11/06 11:36:46;;;;;;;;;;;;;;;6.51;93.28;100146.31;5038087;28;19935;-72
2021/11/06 11:39:15;;;;;;;;;;;;;;;6.86;93.12;100139.41;5037095;28;19996;-75
2021/11/06 11:41:45;;;;;;;;;;;;;;;6.68;93.93;100136.66;5030602;28;19939;-75
2021/11/06 11:44:29;;;;;;;;;;;;;;;6.68;93.21;100133.09;5038986;28;19909;-78
2021/11/06 11:47:15;;;;;;;;;;;;;;;6.58;95.01;100130.47;5011902;28;19920;-77
2021/11/06 11:49:42;;;;;;;;;;;;;;;6.48;95.49;100132.31;5034918;28;19920;-73
2021/11/06 11:52:26;;;;;;;;;;;;;;;6.76;94.61;100125.19;5025428;28;19962;-78
2021/11/06 11:54:52;;;;;;;;;;;;;;;6.77;94.45;100122.31;5041148;28;20333;-76
2021/11/06 11:57:17;;;;;;;;;;;;;;;6.98;92.50;100116.72;5021117;28;19913;-78
2021/11/06 11:59:42;;;;;;;;;;;;;;;7.09;90.96;100120.22;5030578;28;19909;-78
2021/11/06 12:02:40;;;;;;;;;;;;;;;7.34;89.10;100116.00;5014772;28;20505;-76
2021/11/06 12:05:14;;;;;;;;;;;;;;;7.53;87.99;100115.88;4970983;28;19913;-75
2021/11/06 12:07:39;;;;;;;;;;;;;;;7.35;88.07;100106.91;5031529;28;20326;-69
2021/11/06 12:10:29;;;;;;;;;;;;;;;7.41;87.20;100103.59;5032650;28;19963;-69
2021/11/06 12:12:56;;;;;;;;;;;;;;;7.53;87.92;100099.72;5014215;28;19913;-70
2021/11/06 12:15:42;;;;;;;;;;;;;;;7.57;86.79;100095.75;5030298;28;19913;-69
2021/11/06 12:18:36;;;;;;;;;;;;;;;7.49;87.55;100097.47;5030978;28;20428;-70
2021/11/06 12:21:09;;;;;;;;;;;;;;;7.29;89.03;100092.22;5010701;28;20490;-67
2021/11/06 12:23:34;;;;;;;;;;;;;;;7.30;89.75;100093.91;5031463;28;20562;-67
2021/11/06 12:26:19;;;;;;;;;;;;;;;7.35;88.22;100085.38;5026440;28;19917;-67
2021/11/06 12:28:45;;;;;;;;;;;;;;;7.32;90.28;100080.31;5011895;28;19983;-67
2021/11/06 12:31:29;;;;;;;;;;;;;;;7.42;89.12;100083.78;5031787;28;19915;-68
2021/11/06 12:33:56;;;;;;;;;;;;;;;7.34;88.69;100081.00;5028713;28;20371;-67